createdAt,value
2018-03-18T00:00:43.980Z,3.03
2018-03-18T00:06:34.759Z,2.98
2018-03-18T00:12:25.497Z,2.8
2018-03-18T00:18:16.288Z,2.18
2018-03-18T00:24:06.993Z,2.26
2018-03-18T00:29:57.754Z,2.52
2018-03-18T00:35:48.512Z,2.45
2018-03-18T00:41:39.275Z,2.62
2018-03-18T00:47:30.098Z,2.74
2018-03-18T00:53:20.844Z,2.51
2018-03-18T00:59:11.581Z,2.57
2018-03-18T01:05:02.318Z,3.29
2018-03-18T01:10:53.073Z,1.74
2018-03-18T01:16:43.855Z,1.99
2018-03-18T01:22:34.568Z,2
2018-03-18T01:28:25.347Z,2.1
2018-03-18T01:34:16.094Z,2.09
2018-03-18T01:40:06.900Z,2.12
2018-03-18T01:45:57.594Z,1.84
2018-03-18T01:51:48.329Z,1.98
2018-03-18T01:57:39.123Z,1.96
2018-03-18T02:03:29.852Z,1.96
2018-03-18T02:09:20.624Z,1.96
2018-03-18T02:15:11.415Z,2.53
2018-03-18T02:21:02.152Z,2.21
2018-03-18T02:26:52.908Z,2.25
2018-03-18T02:32:43.641Z,1.82
2018-03-18T02:38:34.426Z,1.66
2018-03-18T02:44:25.159Z,1.74
2018-03-18T02:50:15.888Z,2.07
2018-03-18T02:56:06.700Z,1.95
2018-03-18T03:01:57.376Z,1.71
2018-03-18T03:07:48.160Z,1.95
2018-03-18T03:13:38.964Z,1.76
2018-03-18T03:19:29.660Z,1.93
2018-03-18T03:25:20.380Z,1.43
2018-03-18T03:31:11.145Z,2.26
2018-03-18T03:37:01.937Z,1.87
2018-03-18T03:42:52.699Z,2.07
2018-03-18T03:48:43.416Z,2.73
2018-03-18T03:54:34.168Z,3.18
2018-03-18T04:00:24.964Z,3.67
2018-03-18T04:06:15.721Z,3.71
2018-03-18T04:12:06.451Z,4.34
2018-03-18T04:17:57.187Z,4.39
2018-03-18T04:23:47.950Z,3.58
2018-03-18T04:29:38.697Z,3.5
2018-03-18T04:35:29.490Z,3.15
2018-03-18T04:41:20.198Z,3.38
2018-03-18T04:47:11.048Z,3.42
2018-03-18T04:53:01.746Z,3.24
2018-03-18T04:58:52.458Z,3.5
2018-03-18T05:04:43.266Z,3.75
2018-03-18T05:10:34.017Z,3.42
2018-03-18T05:16:24.730Z,4.17
2018-03-18T05:22:15.523Z,3.45
2018-03-18T05:28:06.304Z,4.34
2018-03-18T05:33:57.036Z,4.03
2018-03-18T05:39:47.795Z,3.78
2018-03-18T05:45:38.572Z,5.09
2018-03-18T05:51:29.288Z,4.23
2018-03-18T05:57:20.064Z,3.4
2018-03-18T06:03:10.773Z,3.07
2018-03-18T06:09:01.606Z,2.21
2018-03-18T06:14:52.290Z,1.76
2018-03-18T06:20:43.142Z,1.99
2018-03-18T06:26:33.854Z,1.64
2018-03-18T06:32:24.638Z,2.58
2018-03-18T06:38:15.359Z,3.05
2018-03-18T06:44:06.099Z,2.5
2018-03-18T06:49:56.856Z,2.85
2018-03-18T06:55:47.608Z,2.6
2018-03-18T07:01:38.362Z,2.74
2018-03-18T07:07:29.098Z,3.82
2018-03-18T07:13:19.866Z,4.16
2018-03-18T07:19:10.615Z,5.25
2018-03-18T07:25:01.407Z,6.39
2018-03-18T07:30:52.163Z,6.33
2018-03-18T07:36:42.939Z,5.97
2018-03-18T07:42:33.652Z,3
2018-03-18T07:48:24.404Z,2.59
2018-03-18T07:54:15.191Z,2.27
2018-03-18T08:00:05.932Z,2.29
2018-03-18T08:05:56.728Z,2.23
2018-03-18T08:11:47.491Z,2.92
2018-03-18T08:17:38.298Z,5.16
2018-03-18T08:23:29.037Z,3.6
2018-03-18T08:29:19.796Z,2.77
2018-03-18T08:35:10.568Z,2.01
2018-03-18T08:41:01.279Z,1.81
2018-03-18T08:46:52.084Z,2.14
2018-03-18T08:52:42.801Z,1.42
2018-03-18T08:58:33.586Z,1.95
2018-03-18T09:04:24.383Z,1.26
2018-03-18T09:10:15.103Z,1.46
2018-03-18T09:16:05.880Z,1.5
2018-03-18T09:21:56.658Z,1.58
2018-03-18T09:27:47.416Z,1.08
2018-03-18T09:33:38.188Z,1.43
2018-03-18T09:39:28.924Z,5.76
2018-03-18T09:45:19.739Z,1.92
2018-03-18T09:51:10.506Z,1.48
2018-03-18T09:57:01.257Z,1.39
2018-03-18T10:02:51.983Z,1.3
2018-03-18T10:08:42.717Z,2.51
2018-03-18T10:14:33.459Z,1.91
2018-03-18T10:20:24.337Z,1.39
2018-03-18T10:26:15.004Z,2.02
2018-03-18T10:32:05.850Z,1.52
2018-03-18T10:37:56.629Z,3.13
2018-03-18T10:43:47.263Z,3.48
2018-03-18T10:49:38.116Z,15.29
2018-03-18T10:55:28.859Z,17.23
2018-03-18T11:01:19.666Z,2.92
2018-03-18T11:07:10.336Z,3.19
2018-03-18T11:13:01.098Z,3.12
2018-03-18T11:18:51.862Z,5.97
2018-03-18T11:24:42.624Z,3.13
2018-03-18T11:30:33.381Z,5.51
2018-03-18T11:36:24.164Z,2.42
2018-03-18T11:42:14.936Z,2.38
2018-03-18T11:48:05.691Z,4.89
2018-03-18T11:53:56.455Z,1.11
2018-03-18T11:59:47.263Z,4.82
2018-03-18T12:05:37.999Z,2.5
2018-03-18T12:11:28.781Z,4.09
2018-03-18T12:17:19.527Z,2.84
2018-03-18T12:23:10.312Z,1.68
2018-03-18T12:29:01.066Z,4.96
2018-03-18T12:34:51.874Z,3.29
2018-03-18T12:40:42.616Z,2.79
2018-03-18T12:46:33.418Z,2.3
2018-03-18T12:52:24.191Z,1.39
2018-03-18T12:58:14.952Z,1.51
2018-03-18T13:04:05.706Z,1.08
2018-03-18T13:09:56.509Z,2.68
2018-03-18T13:15:47.268Z,4.9
2018-03-18T13:21:38.058Z,3.41
2018-03-18T13:27:28.835Z,2.1
2018-03-18T13:33:19.635Z,2.58
2018-03-18T13:39:10.383Z,4.22
2018-03-18T13:45:01.178Z,7.54
2018-03-18T13:50:51.956Z,7.04
2018-03-18T13:56:42.701Z,6.73
2018-03-18T14:02:33.476Z,7.11
2018-03-18T14:08:24.366Z,7.43
2018-03-18T14:14:15.080Z,4.53
2018-03-18T14:20:05.941Z,5.61
2018-03-18T14:25:56.595Z,4.59
2018-03-18T14:31:47.358Z,8.14
2018-03-18T14:37:38.130Z,6.36
2018-03-18T14:43:28.921Z,5.33
2018-03-18T14:49:19.681Z,5.3
2018-03-18T14:55:10.469Z,6.68
2018-03-18T15:01:01.240Z,9.95
2018-03-18T15:06:52.048Z,6.76
2018-03-18T15:12:42.800Z,6.26
2018-03-18T15:18:33.597Z,9.4
2018-03-18T15:24:24.339Z,9.25
2018-03-18T15:30:15.172Z,9.79
2018-03-18T15:36:05.884Z,9.01
2018-03-18T15:41:56.659Z,8.3
2018-03-18T15:47:47.471Z,4.85
2018-03-18T15:53:38.203Z,8.54
2018-03-18T15:59:28.976Z,5.36
2018-03-18T16:05:19.760Z,4.27
2018-03-18T16:11:10.525Z,10.01
2018-03-18T16:17:01.289Z,5.16
2018-03-18T16:22:52.075Z,7.29
2018-03-18T16:28:42.838Z,10.31
2018-03-18T16:34:33.643Z,9.26
2018-03-18T16:40:24.413Z,8.91
2018-03-18T16:46:15.148Z,7.49
2018-03-18T16:52:05.951Z,7.16
2018-03-18T16:57:56.634Z,11.63
2018-03-18T17:03:47.450Z,8.63
2018-03-18T17:09:38.149Z,7.55
2018-03-18T17:15:28.929Z,5.26
2018-03-18T17:21:19.720Z,5.06
2018-03-18T17:27:10.492Z,3.56
2018-03-18T17:33:01.313Z,4.1
2018-03-18T17:38:51.988Z,4.84
2018-03-18T17:44:42.740Z,10.76
2018-03-18T17:50:33.549Z,16.02
2018-03-18T17:56:24.322Z,16.48
2018-03-18T18:02:15.106Z,10.42
2018-03-18T18:08:05.841Z,9.9
2018-03-18T18:13:56.597Z,9.05
2018-03-18T18:19:47.350Z,14.93
2018-03-18T18:25:38.113Z,21.45
2018-03-18T18:31:28.877Z,6.37
2018-03-18T18:37:19.593Z,15.49
2018-03-18T18:43:10.380Z,3.84
2018-03-18T18:49:01.225Z,5.37
2018-03-18T18:54:51.913Z,4.5
2018-03-18T19:00:42.682Z,2.5
2018-03-18T19:06:33.428Z,1.66
2018-03-18T19:12:24.160Z,2.11
2018-03-18T19:18:14.926Z,3.33
2018-03-18T19:24:05.720Z,11.98
2018-03-18T19:29:56.483Z,17.42
2018-03-18T19:35:47.231Z,10.27
2018-03-18T19:41:37.957Z,8.2
2018-03-18T19:47:28.732Z,8.72
2018-03-18T19:53:19.486Z,9.99
2018-03-18T19:59:10.234Z,8.2
2018-03-18T20:05:01.021Z,5.96
2018-03-18T20:10:51.724Z,21.95
2018-03-18T20:16:42.488Z,11.67
2018-03-18T20:22:33.265Z,11.71
2018-03-18T20:28:23.985Z,9.16
2018-03-18T20:34:14.764Z,6.18
2018-03-18T20:40:05.539Z,9.46
2018-03-18T20:45:56.344Z,3.61
2018-03-18T20:51:47.081Z,6.71
2018-03-18T20:57:37.819Z,7.5
2018-03-18T21:03:28.538Z,4.24
2018-03-18T21:09:19.313Z,4.36
2018-03-18T21:15:10.056Z,2.91
2018-03-18T21:21:00.786Z,3.79
2018-03-18T21:26:51.565Z,4.11
2018-03-18T21:32:42.333Z,3.94
2018-03-18T21:38:33.101Z,4.12
2018-03-18T21:44:23.837Z,3.9
2018-03-18T21:50:14.620Z,23.7
2018-03-18T21:56:05.455Z,12.98
2018-03-18T22:01:56.164Z,10.27
2018-03-18T22:07:46.919Z,12.52
2018-03-18T22:13:37.679Z,7.74
2018-03-18T22:19:28.376Z,10.5
2018-03-18T22:25:19.219Z,11.43
2018-03-18T22:31:09.973Z,13.03
2018-03-18T22:37:00.674Z,8.96
2018-03-18T22:42:51.458Z,7.67
2018-03-18T22:48:42.180Z,5.11
2018-03-18T22:54:32.931Z,6.38
2018-03-18T23:00:23.752Z,6.97
2018-03-18T23:06:14.437Z,6.71
2018-03-18T23:12:05.199Z,6.79
2018-03-18T23:17:55.947Z,8.15
2018-03-18T23:23:46.747Z,8.7
2018-03-18T23:29:37.499Z,9.03
2018-03-18T23:35:28.213Z,7.4
2018-03-18T23:41:18.968Z,4.68
2018-03-18T23:47:09.780Z,5.01
2018-03-18T23:53:00.472Z,6.02
2018-03-18T23:58:51.240Z,7.48
